createdAt,value
2022-10-03T00:01:44.222Z,12.10
2022-10-03T00:04:22.982Z,12.12
2022-10-03T00:07:05.340Z,12.14
2022-10-03T00:09:49.965Z,12.17
2022-10-03T00:12:40.279Z,12.18
2022-10-03T00:15:15.282Z,12.17
2022-10-03T00:17:51.858Z,12.14
2022-10-03T00:20:39.830Z,12.11
2022-10-03T00:23:14.935Z,12.11
2022-10-03T00:25:49.032Z,12.09
2022-10-03T00:28:26.777Z,12.07
2022-10-03T00:31:09.378Z,12.06
2022-10-03T00:33:52.210Z,12.04
2022-10-03T00:36:28.614Z,12.01
2022-10-03T00:39:26.780Z,11.99
2022-10-03T00:42:47.519Z,11.93
2022-10-03T00:46:00.708Z,11.86
2022-10-03T00:48:58.232Z,11.81
2022-10-03T00:51:35.019Z,11.78
2022-10-03T00:54:19.381Z,11.77
2022-10-03T00:57:13.316Z,11.77
2022-10-03T00:59:57.922Z,11.77
2022-10-03T01:03:05.274Z,11.77
2022-10-03T01:05:46.899Z,11.76
2022-10-03T01:08:49.043Z,11.73
2022-10-03T01:11:31.936Z,11.72
2022-10-03T01:14:13.836Z,11.71
2022-10-03T01:16:48.171Z,11.68
2022-10-03T01:19:40.351Z,11.69
2022-10-03T01:22:51.039Z,11.72
2022-10-03T01:25:21.317Z,11.73
2022-10-03T01:28:20.641Z,11.76
2022-10-03T01:30:55.564Z,11.78
2022-10-03T01:33:31.433Z,11.81
2022-10-03T01:36:04.998Z,11.84
2022-10-03T01:38:39.518Z,11.87
2022-10-03T01:41:12.503Z,11.88
2022-10-03T01:43:47.009Z,11.89
2022-10-03T01:46:22.727Z,11.90
2022-10-03T01:49:00.685Z,11.91
2022-10-03T01:51:34.839Z,11.91
2022-10-03T01:54:13.599Z,11.91
2022-10-03T01:56:48.294Z,11.92
2022-10-03T01:59:23.624Z,11.93
2022-10-03T02:01:59.180Z,11.94
2022-10-03T02:04:37.817Z,11.94
2022-10-03T02:07:13.828Z,11.93
2022-10-03T02:09:55.475Z,11.94
2022-10-03T02:12:35.046Z,11.93
2022-10-03T02:15:11.694Z,11.94
2022-10-03T02:17:54.031Z,11.94
2022-10-03T02:20:29.515Z,11.92
2022-10-03T02:22:59.079Z,11.90
2022-10-03T02:25:35.341Z,11.84
2022-10-03T02:28:45.570Z,11.83
2022-10-03T02:31:39.479Z,11.81
2022-10-03T02:34:45.531Z,11.78
2022-10-03T02:37:51.180Z,11.77
2022-10-03T02:40:35.199Z,11.76
2022-10-03T02:43:45.712Z,11.76
2022-10-03T02:46:48.854Z,11.75
2022-10-03T02:49:52.492Z,11.77
2022-10-03T02:52:48.808Z,11.80
2022-10-03T02:55:44.501Z,11.82
2022-10-03T02:58:39.893Z,11.84
2022-10-03T03:01:50.273Z,11.82
2022-10-03T03:04:47.785Z,11.81
2022-10-03T03:07:38.249Z,11.83
2022-10-03T03:10:34.447Z,11.86
2022-10-03T03:13:27.292Z,11.87
2022-10-03T03:16:41.952Z,11.88
2022-10-03T03:19:49.244Z,11.88
2022-10-03T03:22:35.318Z,11.86
2022-10-03T03:25:29.094Z,11.85
2022-10-03T03:28:13.046Z,11.83
2022-10-03T03:30:49.373Z,11.82
2022-10-03T03:33:29.185Z,11.81
2022-10-03T03:36:05.371Z,11.79
2022-10-03T03:38:43.050Z,11.72
2022-10-03T03:41:26.735Z,11.66
2022-10-03T03:44:07.535Z,11.60
2022-10-03T03:46:45.872Z,11.55
2022-10-03T03:49:31.757Z,11.49
2022-10-03T03:52:34.610Z,11.48
2022-10-03T03:55:27.761Z,11.47
2022-10-03T03:58:19.142Z,11.47
2022-10-03T04:01:03.541Z,11.45
2022-10-03T04:03:48.249Z,11.43
2022-10-03T04:06:36.585Z,11.42
2022-10-03T04:09:32.222Z,11.40
2022-10-03T04:12:10.833Z,11.38
2022-10-03T04:14:56.295Z,11.36
2022-10-03T04:17:56.530Z,11.35
2022-10-03T04:20:46.243Z,11.36
2022-10-03T04:23:27.437Z,11.35
2022-10-03T04:26:11.504Z,11.36
2022-10-03T04:29:00.580Z,11.39
2022-10-03T04:31:41.765Z,11.42
2022-10-03T04:34:21.123Z,11.48
2022-10-03T04:37:09.682Z,11.48
2022-10-03T04:39:45.697Z,11.49
2022-10-03T04:42:28.420Z,11.51
2022-10-03T04:45:14.284Z,11.50
2022-10-03T04:47:46.899Z,11.51
2022-10-03T04:50:32.758Z,11.52
2022-10-03T04:53:18.371Z,11.55
2022-10-03T04:55:50.538Z,11.57
2022-10-03T04:58:32.524Z,11.60
2022-10-03T05:01:15.209Z,11.62
2022-10-03T05:03:56.575Z,11.65
2022-10-03T05:06:34.517Z,11.67
2022-10-03T05:09:15.820Z,11.70
2022-10-03T05:11:55.735Z,11.73
2022-10-03T05:14:33.744Z,11.73
2022-10-03T05:17:12.830Z,11.73
2022-10-03T05:19:54.474Z,11.73
2022-10-03T05:22:33.937Z,11.74
2022-10-03T05:25:13.041Z,11.77
2022-10-03T05:27:51.944Z,11.80
2022-10-03T05:30:41.690Z,11.81
2022-10-03T05:33:21.566Z,11.82
2022-10-03T05:36:01.483Z,11.83
2022-10-03T05:38:55.164Z,11.85
2022-10-03T05:41:28.097Z,11.84
2022-10-03T05:44:04.490Z,11.84
2022-10-03T05:46:59.228Z,11.82
2022-10-03T05:49:58.328Z,11.81
2022-10-03T05:52:46.461Z,11.76
2022-10-03T05:55:38.149Z,11.72
2022-10-03T05:58:27.123Z,11.67
2022-10-03T06:01:26.391Z,11.64
2022-10-03T06:04:06.571Z,11.63
2022-10-03T06:06:53.335Z,11.64
2022-10-03T06:09:52.597Z,11.64
2022-10-03T06:12:29.041Z,11.62
2022-10-03T06:15:25.694Z,11.64
2022-10-03T06:18:02.575Z,11.65
2022-10-03T06:21:07.308Z,11.69
2022-10-03T06:23:50.827Z,11.73
2022-10-03T06:26:52.055Z,11.76
2022-10-03T06:29:59.610Z,11.78
2022-10-03T06:33:05.124Z,11.78
2022-10-03T06:36:14.443Z,11.77
2022-10-03T06:39:41.975Z,11.79
2022-10-03T06:42:37.541Z,11.79
2022-10-03T06:45:39.505Z,11.82
2022-10-03T06:48:51.532Z,11.86
2022-10-03T06:51:47.939Z,11.88
2022-10-03T06:54:48.213Z,11.89
2022-10-03T06:57:46.424Z,11.90
2022-10-03T07:00:19.152Z,11.91
2022-10-03T07:03:31.456Z,11.96
2022-10-03T07:06:35.825Z,12.00
2022-10-03T07:09:43.556Z,12.02
2022-10-03T07:12:55.117Z,12.06
2022-10-03T07:16:05.054Z,12.08
2022-10-03T07:19:17.700Z,12.10
2022-10-03T07:22:11.667Z,12.12
2022-10-03T07:25:12.960Z,12.15
2022-10-03T07:27:58.452Z,12.18
2022-10-03T07:30:31.615Z,12.21
2022-10-03T07:33:43.125Z,12.24
2022-10-03T07:37:03.544Z,12.25
2022-10-03T07:40:09.608Z,12.29
2022-10-03T07:43:17.072Z,12.33
2022-10-03T07:45:47.723Z,12.35
2022-10-03T07:48:36.229Z,12.38
2022-10-03T07:51:15.020Z,12.42
2022-10-03T07:54:29.921Z,12.48
2022-10-03T07:57:30.526Z,12.54
2022-10-03T08:00:22.619Z,12.62
2022-10-03T08:03:28.904Z,12.67
2022-10-03T08:06:24.642Z,12.72
2022-10-03T08:09:43.468Z,12.77
2022-10-03T08:12:46.453Z,12.82
2022-10-03T08:15:28.477Z,12.85
2022-10-03T08:18:37.651Z,12.87
2022-10-03T08:21:11.756Z,12.90
2022-10-03T08:24:18.810Z,12.92
2022-10-03T08:27:14.435Z,12.96
2022-10-03T08:30:07.451Z,13.01
2022-10-03T08:33:05.609Z,13.06
2022-10-03T08:36:01.135Z,13.13
2022-10-03T08:39:04.130Z,13.21
2022-10-03T08:42:05.324Z,13.31
2022-10-03T08:45:14.588Z,13.42
2022-10-03T08:48:21.094Z,13.54
2022-10-03T08:51:20.232Z,13.62
2022-10-03T08:54:13.581Z,13.70
2022-10-03T08:57:08.546Z,13.79
2022-10-03T09:00:05.815Z,13.85
2022-10-03T09:03:32.562Z,13.90
2022-10-03T09:06:33.145Z,13.95
2022-10-03T09:09:24.692Z,14.00
2022-10-03T09:12:32.793Z,14.03
2022-10-03T09:15:12.083Z,14.08
2022-10-03T09:18:07.592Z,14.14
2022-10-03T09:21:12.180Z,14.22
2022-10-03T09:24:18.928Z,14.31
2022-10-03T09:27:21.624Z,14.40
2022-10-03T09:30:15.369Z,14.49
2022-10-03T09:33:50.825Z,14.59
2022-10-03T09:36:47.771Z,14.68
2022-10-03T09:39:52.188Z,14.79
2022-10-03T09:42:52.666Z,14.89
2022-10-03T09:45:49.159Z,15.01
2022-10-03T09:49:17.145Z,15.13
2022-10-03T09:51:57.885Z,15.22
2022-10-03T09:54:47.669Z,15.32
2022-10-03T09:57:47.804Z,15.43
2022-10-03T10:00:23.223Z,15.52
2022-10-03T10:03:28.225Z,15.64
2022-10-03T10:06:30.318Z,15.77
2022-10-03T10:09:41.581Z,15.88
2022-10-03T10:12:45.540Z,15.98
2022-10-03T10:15:45.815Z,16.10
2022-10-03T10:18:36.539Z,16.19
2022-10-03T10:21:40.601Z,16.31
2022-10-03T10:24:36.446Z,16.40
2022-10-03T10:27:32.460Z,16.48
2022-10-03T10:30:20.965Z,16.56
2022-10-03T10:33:32.047Z,16.66
2022-10-03T10:36:42.499Z,16.73
2022-10-03T10:39:45.399Z,16.79
2022-10-03T10:43:15.538Z,16.87
2022-10-03T10:46:17.305Z,16.90
2022-10-03T10:49:31.901Z,16.97
2022-10-03T10:52:32.502Z,17.05
2022-10-03T10:55:44.069Z,17.11
2022-10-03T10:58:53.199Z,17.17
2022-10-03T11:02:14.914Z,17.23
2022-10-03T11:05:19.280Z,17.31
2022-10-03T11:08:26.911Z,17.37
2022-10-03T11:11:22.294Z,17.40
2022-10-03T11:14:19.421Z,17.46
2022-10-03T11:17:25.958Z,17.50
2022-10-03T11:20:22.921Z,17.58
2022-10-03T11:23:36.789Z,17.68
2022-10-03T11:26:46.293Z,17.76
2022-10-03T11:30:05.106Z,17.84
2022-10-03T11:33:14.440Z,17.92
2022-10-03T11:36:21.463Z,18.04
2022-10-03T11:39:03.736Z,18.16
2022-10-03T11:41:41.881Z,18.27
2022-10-03T11:44:23.196Z,18.32
2022-10-03T11:47:08.300Z,18.33
2022-10-03T11:49:59.002Z,18.38
2022-10-03T11:52:33.040Z,18.41
2022-10-03T11:55:20.945Z,18.48
2022-10-03T11:58:00.229Z,18.51
2022-10-03T12:00:36.790Z,18.50
2022-10-03T12:03:17.381Z,18.49
2022-10-03T12:06:17.709Z,18.50
2022-10-03T12:08:55.719Z,18.52
2022-10-03T12:11:28.306Z,18.56
2022-10-03T12:14:23.615Z,18.70
2022-10-03T12:17:03.143Z,18.83
2022-10-03T12:19:37.384Z,18.89
2022-10-03T12:22:16.813Z,18.97
2022-10-03T12:24:46.226Z,19.06
2022-10-03T12:27:23.836Z,19.09
2022-10-03T12:29:58.814Z,19.07
2022-10-03T12:32:38.351Z,19.07
2022-10-03T12:35:22.904Z,19.11
2022-10-03T12:38:07.983Z,19.15
2022-10-03T12:40:41.266Z,19.12
2022-10-03T12:43:27.726Z,19.06
2022-10-03T12:46:01.548Z,19.02
2022-10-03T12:48:47.895Z,19.20
2022-10-03T12:51:34.847Z,19.36
2022-10-03T12:54:18.380Z,19.45
2022-10-03T12:56:50.553Z,19.54
2022-10-03T12:59:31.652Z,19.47
2022-10-03T13:02:25.414Z,19.45
2022-10-03T13:05:08.966Z,19.47
2022-10-03T13:07:52.929Z,19.45
2022-10-03T13:10:32.801Z,19.59
2022-10-03T13:13:13.781Z,19.81
2022-10-03T13:16:05.968Z,19.90
2022-10-03T13:18:44.177Z,20.11
2022-10-03T13:21:44.316Z,20.37
2022-10-03T13:24:16.723Z,20.62
2022-10-03T13:26:54.388Z,20.84
2022-10-03T13:29:39.019Z,21.07
2022-10-03T13:32:16.228Z,21.19
2022-10-03T13:35:46.395Z,21.28
2022-10-03T13:38:48.426Z,21.23
2022-10-03T13:41:27.556Z,21.13
2022-10-03T13:44:00.523Z,21.12
2022-10-03T13:46:38.454Z,21.16
2022-10-03T13:49:18.569Z,21.22
2022-10-03T13:51:58.734Z,21.31
2022-10-03T13:54:51.383Z,21.42
2022-10-03T13:57:26.100Z,21.51
2022-10-03T14:00:04.488Z,21.67
2022-10-03T14:02:59.883Z,21.87
2022-10-03T14:05:51.345Z,22.01
2022-10-03T14:08:44.600Z,22.05
2022-10-03T14:11:23.859Z,22.02
2022-10-03T14:14:28.715Z,22.04
2022-10-03T14:17:03.488Z,22.09
2022-10-03T14:19:41.525Z,22.19
2022-10-03T14:22:22.735Z,22.21
2022-10-03T14:25:01.478Z,22.11
2022-10-03T14:27:42.166Z,22.02
2022-10-03T14:30:15.496Z,21.87
2022-10-03T14:33:10.953Z,21.67
2022-10-03T14:35:44.965Z,21.68
2022-10-03T14:38:47.002Z,21.79
2022-10-03T14:41:20.866Z,21.89
2022-10-03T14:43:53.369Z,21.92
2022-10-03T14:46:26.059Z,21.84
2022-10-03T14:48:58.837Z,21.79
2022-10-03T14:51:31.047Z,21.73
2022-10-03T14:54:02.814Z,21.73
2022-10-03T14:56:35.561Z,21.78
2022-10-03T14:59:13.085Z,21.81
2022-10-03T15:01:51.099Z,21.90
2022-10-03T15:04:29.243Z,22.01
2022-10-03T15:07:00.599Z,22.06
2022-10-03T15:09:42.622Z,22.14
2022-10-03T15:12:16.646Z,22.14
2022-10-03T15:14:49.214Z,22.08
2022-10-03T15:17:23.301Z,22.05
2022-10-03T15:19:54.906Z,22.01
2022-10-03T15:22:32.130Z,21.78
2022-10-03T15:25:06.115Z,21.45
2022-10-03T15:27:36.042Z,21.25
2022-10-03T15:30:06.876Z,21.12
2022-10-03T15:32:39.420Z,21.01
2022-10-03T15:35:08.139Z,20.92
2022-10-03T15:37:47.468Z,20.75
2022-10-03T15:40:26.100Z,20.56
2022-10-03T15:43:04.916Z,20.46
2022-10-03T15:45:36.144Z,20.39
2022-10-03T15:48:08.297Z,20.32
2022-10-03T15:50:41.026Z,20.24
2022-10-03T15:53:34.967Z,20.11
2022-10-03T15:56:12.251Z,19.98
2022-10-03T15:58:47.722Z,19.91
2022-10-03T16:01:21.665Z,19.84
2022-10-03T16:03:52.514Z,19.79
2022-10-03T16:06:24.002Z,19.81
2022-10-03T16:09:00.815Z,20.13
2022-10-03T16:11:33.433Z,20.42
2022-10-03T16:14:16.616Z,20.61
2022-10-03T16:16:49.556Z,20.97
2022-10-03T16:19:31.330Z,21.21
2022-10-03T16:22:14.898Z,21.26
2022-10-03T16:24:49.938Z,21.09
2022-10-03T16:27:20.819Z,20.90
2022-10-03T16:29:58.805Z,20.53
2022-10-03T16:32:31.235Z,20.21
2022-10-03T16:35:03.748Z,19.93
2022-10-03T16:37:33.201Z,19.73
2022-10-03T16:40:03.779Z,19.56
2022-10-03T16:42:43.124Z,19.39
2022-10-03T16:45:23.297Z,19.21
2022-10-03T16:48:13.420Z,19.05
2022-10-03T16:50:47.528Z,18.89
2022-10-03T16:53:16.211Z,18.77
2022-10-03T16:55:48.681Z,18.65
2022-10-03T16:58:21.676Z,18.58
2022-10-03T17:01:22.082Z,18.50
2022-10-03T17:03:48.995Z,18.42
2022-10-03T17:06:22.263Z,18.36
2022-10-03T17:08:52.983Z,18.32
2022-10-03T17:11:26.211Z,18.29
2022-10-03T17:13:56.551Z,18.26
2022-10-03T17:16:34.499Z,18.25
2022-10-03T17:19:14.528Z,18.20
2022-10-03T17:21:53.862Z,18.17
2022-10-03T17:24:43.563Z,18.12
2022-10-03T17:27:19.835Z,18.08
2022-10-03T17:29:56.510Z,18.06
2022-10-03T17:32:27.066Z,18.03
2022-10-03T17:35:01.923Z,18.01
2022-10-03T17:38:37.524Z,17.99
2022-10-03T17:41:18.504Z,17.96
2022-10-03T17:43:54.469Z,17.93
2022-10-03T17:46:32.313Z,17.88
2022-10-03T17:49:10.077Z,17.82
2022-10-03T17:51:41.948Z,17.76
2022-10-03T17:54:15.360Z,17.73
2022-10-03T17:56:48.017Z,17.68
2022-10-03T17:59:21.273Z,17.66
2022-10-03T18:01:53.092Z,17.60
2022-10-03T18:04:29.125Z,17.56
2022-10-03T18:06:59.493Z,17.51
2022-10-03T18:09:32.200Z,17.47
2022-10-03T18:12:16.350Z,17.43
2022-10-03T18:15:02.521Z,17.40
2022-10-03T18:17:41.355Z,17.37
2022-10-03T18:20:32.084Z,17.31
2022-10-03T18:23:02.420Z,17.24
2022-10-03T18:26:18.231Z,17.20
2022-10-03T18:28:46.568Z,17.14
2022-10-03T18:31:19.456Z,17.09
2022-10-03T18:33:52.574Z,17.05
2022-10-03T18:36:24.927Z,16.99
2022-10-03T18:38:56.629Z,16.97
2022-10-03T18:41:25.850Z,16.94
2022-10-03T18:43:59.926Z,16.88
2022-10-03T18:46:33.352Z,16.84
2022-10-03T18:49:32.507Z,16.82
2022-10-03T18:52:00.526Z,16.79
2022-10-03T18:54:38.454Z,16.79
2022-10-03T18:57:11.788Z,16.77
2022-10-03T18:59:52.321Z,16.74
2022-10-03T19:02:31.941Z,16.73
2022-10-03T19:05:08.585Z,16.71
2022-10-03T19:07:44.117Z,16.70
2022-10-03T19:10:27.673Z,16.69
2022-10-03T19:13:04.573Z,16.72
2022-10-03T19:15:45.852Z,16.72
2022-10-03T19:18:22.963Z,16.72
2022-10-03T19:20:55.388Z,16.74
2022-10-03T19:23:27.650Z,16.75
2022-10-03T19:25:58.491Z,16.75
2022-10-03T19:28:31.035Z,16.75
2022-10-03T19:31:06.745Z,16.75
2022-10-03T19:33:43.817Z,16.74
2022-10-03T19:36:18.276Z,16.74
2022-10-03T19:38:48.927Z,16.72
2022-10-03T19:41:30.673Z,16.74
2022-10-03T19:44:04.177Z,16.72
2022-10-03T19:47:05.282Z,16.71
2022-10-03T19:49:54.308Z,16.67
2022-10-03T19:52:30.621Z,16.63
2022-10-03T19:55:04.705Z,16.63
2022-10-03T19:57:41.668Z,16.61
2022-10-03T20:00:22.848Z,16.58
2022-10-03T20:02:57.604Z,16.54
2022-10-03T20:05:30.402Z,16.48
2022-10-03T20:08:03.915Z,16.44
2022-10-03T20:10:45.237Z,16.39
2022-10-03T20:13:13.989Z,16.33
2022-10-03T20:15:44.959Z,16.29
2022-10-03T20:18:22.273Z,16.25
2022-10-03T20:20:53.975Z,16.23
2022-10-03T20:23:24.590Z,16.21
2022-10-03T20:25:59.428Z,16.20
2022-10-03T20:28:42.925Z,16.18
2022-10-03T20:31:12.029Z,16.17
2022-10-03T20:33:44.006Z,16.14
2022-10-03T20:36:18.832Z,16.12
2022-10-03T20:39:04.510Z,16.11
2022-10-03T20:41:40.840Z,16.10
2022-10-03T20:44:19.620Z,16.10
2022-10-03T20:46:51.209Z,16.09
2022-10-03T20:49:31.229Z,16.08
2022-10-03T20:52:04.231Z,16.06
2022-10-03T20:54:37.438Z,16.04
2022-10-03T20:57:16.266Z,16.03
2022-10-03T20:59:48.079Z,16.03
2022-10-03T21:02:29.861Z,16.03
2022-10-03T21:05:03.988Z,16.02
2022-10-03T21:07:37.809Z,16.00
2022-10-03T21:10:21.801Z,15.99
2022-10-03T21:12:52.921Z,15.99
2022-10-03T21:15:36.331Z,16.01
2022-10-03T21:18:05.564Z,16.01
2022-10-03T21:20:39.605Z,16.00
2022-10-03T21:23:16.510Z,16.01
2022-10-03T21:25:45.462Z,16.01
2022-10-03T21:28:25.540Z,16.00
2022-10-03T21:31:08.512Z,16.02
2022-10-03T21:33:43.113Z,16.02
2022-10-03T21:36:22.186Z,16.05
2022-10-03T21:38:52.286Z,16.05
2022-10-03T21:41:37.610Z,16.06
2022-10-03T21:44:14.435Z,16.05
2022-10-03T21:46:52.339Z,16.06
2022-10-03T21:49:39.066Z,16.08
2022-10-03T21:52:23.697Z,16.08
2022-10-03T21:55:04.176Z,16.08
2022-10-03T21:57:46.673Z,16.08
2022-10-03T22:00:16.474Z,16.07
2022-10-03T22:02:57.629Z,16.08
2022-10-03T22:05:39.330Z,16.08
2022-10-03T22:08:24.325Z,16.08
2022-10-03T22:11:08.368Z,16.08
2022-10-03T22:13:38.602Z,16.09
2022-10-03T22:16:14.101Z,16.10
2022-10-03T22:19:07.310Z,16.10
2022-10-03T22:21:42.595Z,16.11
2022-10-03T22:24:18.494Z,16.10
2022-10-03T22:26:52.297Z,16.10
2022-10-03T22:29:27.950Z,16.10
2022-10-03T22:32:02.973Z,16.11
2022-10-03T22:34:42.246Z,16.11
2022-10-03T22:37:10.577Z,16.12
2022-10-03T22:39:40.313Z,16.13
2022-10-03T22:42:08.547Z,16.13
2022-10-03T22:44:39.231Z,16.12
2022-10-03T22:47:15.005Z,16.13
2022-10-03T22:49:46.309Z,16.11
2022-10-03T22:52:20.178Z,16.10
2022-10-03T22:54:51.151Z,16.09
2022-10-03T22:57:20.227Z,16.09
2022-10-03T22:59:51.725Z,16.08
2022-10-03T23:02:27.063Z,16.09
2022-10-03T23:05:00.243Z,16.07
2022-10-03T23:07:54.643Z,16.08
2022-10-03T23:10:43.659Z,16.06
2022-10-03T23:13:19.209Z,16.04
2022-10-03T23:15:51.580Z,16.03
2022-10-03T23:18:41.320Z,16.05
2022-10-03T23:21:11.240Z,16.05
2022-10-03T23:23:48.214Z,16.03
2022-10-03T23:26:42.170Z,16.00
2022-10-03T23:29:13.365Z,15.94
2022-10-03T23:31:56.697Z,15.90
2022-10-03T23:35:14.351Z,15.85
2022-10-03T23:37:44.213Z,15.80
2022-10-03T23:40:37.278Z,15.76
2022-10-03T23:43:24.321Z,15.72
2022-10-03T23:45:53.633Z,15.70
2022-10-03T23:48:24.918Z,15.68
2022-10-03T23:50:55.461Z,15.68
2022-10-03T23:53:31.069Z,15.69
2022-10-03T23:56:00.685Z,15.68
2022-10-03T23:58:32.605Z,15.68
